createdAt,value
2017-08-24T00:00:38.129Z,16.13
2017-08-24T00:05:41.315Z,15.63
2017-08-24T00:10:44.505Z,13.93
2017-08-24T00:15:47.722Z,19.43
2017-08-24T00:20:50.918Z,14.23
2017-08-24T00:25:54.118Z,15.13
2017-08-24T00:30:57.292Z,17.10
2017-08-24T00:36:00.495Z,17.10
2017-08-24T00:41:03.668Z,16.93
2017-08-24T00:46:06.837Z,19.27
2017-08-24T00:51:10.106Z,15.90
2017-08-24T00:56:13.421Z,18.23
2017-08-24T01:01:16.615Z,16.87
2017-08-24T01:06:19.799Z,21.13
2017-08-24T01:11:22.992Z,18.80
2017-08-24T01:16:26.196Z,14.90
2017-08-24T01:21:29.367Z,19.50
2017-08-24T01:26:32.715Z,17.20
2017-08-24T01:31:35.911Z,17.03
2017-08-24T01:36:39.092Z,19.77
2017-08-24T01:41:42.285Z,21.87
2017-08-24T01:46:45.453Z,18.37
2017-08-24T01:51:48.646Z,21.90
2017-08-24T01:56:51.848Z,21.50
2017-08-24T02:01:55.039Z,16.80
2017-08-24T02:06:58.319Z,16.27
2017-08-24T02:12:01.486Z,19.27
2017-08-24T02:17:04.685Z,21.27
2017-08-24T02:22:07.898Z,19.50
2017-08-24T02:27:11.093Z,19.20
2017-08-24T02:32:14.294Z,20.08
2017-08-24T02:37:17.474Z,22.07
2017-08-24T02:42:20.661Z,18.00
2017-08-24T02:47:23.856Z,15.80
2017-08-24T02:52:27.056Z,21.93
2017-08-24T02:57:30.242Z,23.13
2017-08-24T03:02:33.463Z,21.03
2017-08-24T03:07:36.637Z,21.60
2017-08-24T03:12:39.853Z,21.73
2017-08-24T03:17:43.215Z,22.07
2017-08-24T03:22:46.394Z,19.90
2017-08-24T03:27:49.630Z,19.53
2017-08-24T03:32:52.841Z,18.73
2017-08-24T03:37:56.050Z,23.60
2017-08-24T03:42:59.245Z,17.57
2017-08-24T03:48:02.461Z,20.10
2017-08-24T03:53:05.654Z,20.00
2017-08-24T03:58:08.840Z,19.80
2017-08-24T04:03:12.084Z,26.00
2017-08-24T04:08:15.281Z,22.13
2017-08-24T04:13:18.478Z,23.80
2017-08-24T04:18:21.677Z,22.23
2017-08-24T04:23:24.948Z,27.63
2017-08-24T04:28:28.133Z,17.27
2017-08-24T04:33:31.423Z,22.50
2017-08-24T04:38:34.750Z,17.37
2017-08-24T04:43:37.942Z,17.13
2017-08-24T04:48:41.130Z,23.60
2017-08-24T04:53:44.331Z,17.17
2017-08-24T04:58:47.499Z,18.27
2017-08-24T05:03:50.700Z,23.07
2017-08-24T05:08:53.886Z,17.93
2017-08-24T05:13:57.053Z,16.20
2017-08-24T05:19:00.273Z,31.47
2017-08-24T05:24:03.490Z,27.37
2017-08-24T05:29:06.686Z,21.53
2017-08-24T05:34:09.870Z,21.63
2017-08-24T05:39:13.086Z,24.47
2017-08-24T05:44:16.275Z,26.40
2017-08-24T05:49:19.460Z,30.53
2017-08-24T05:54:22.627Z,21.00
2017-08-24T05:59:25.824Z,28.83
2017-08-24T06:04:29.021Z,28.20
2017-08-24T06:09:32.218Z,20.90
2017-08-24T06:14:35.553Z,27.20
2017-08-24T06:19:38.713Z,17.23
2017-08-24T06:24:41.907Z,21.50
2017-08-24T06:29:45.153Z,26.83
2017-08-24T06:34:48.442Z,29.37
2017-08-24T06:39:51.630Z,24.43
2017-08-24T06:44:54.855Z,24.93
2017-08-24T06:49:58.028Z,26.70
2017-08-24T06:55:01.207Z,25.17
2017-08-24T07:00:04.406Z,24.30
2017-08-24T07:05:07.597Z,24.53
2017-08-24T07:10:10.786Z,30.10
2017-08-24T07:15:13.966Z,22.57
2017-08-24T07:20:17.174Z,21.03
2017-08-24T07:25:20.364Z,27.27
2017-08-24T07:30:23.588Z,27.00
2017-08-24T07:35:26.801Z,20.83
2017-08-24T07:40:29.988Z,22.60
2017-08-24T07:45:33.200Z,30.03
2017-08-24T07:50:36.400Z,18.90
2017-08-24T07:55:39.624Z,18.70
2017-08-24T08:00:42.912Z,14.00
2017-08-24T08:05:46.411Z,18.67
2017-08-24T08:10:49.584Z,10.90
2017-08-24T08:15:52.864Z,8.93
2017-08-24T08:20:56.075Z,10.53
2017-08-24T08:25:59.272Z,9.20
2017-08-24T08:31:02.461Z,8.00
2017-08-24T08:36:05.663Z,6.17
2017-08-24T08:41:08.845Z,4.20
2017-08-24T08:46:12.021Z,5.20
2017-08-24T08:51:15.208Z,4.43
2017-08-24T08:56:18.399Z,3.20
2017-08-24T09:01:21.592Z,8.23
2017-08-24T09:06:24.806Z,4.43
2017-08-24T09:11:28.035Z,4.50
2017-08-24T09:16:31.232Z,4.73
2017-08-24T09:21:34.446Z,10.83
2017-08-24T09:26:37.647Z,5.83
2017-08-24T09:31:40.834Z,6.07
2017-08-24T09:36:44.021Z,8.03
2017-08-24T09:41:47.202Z,5.93
2017-08-24T09:46:50.386Z,8.53
2017-08-24T09:51:53.577Z,10.40
2017-08-24T09:56:56.764Z,4.53
2017-08-24T10:01:59.942Z,9.00
2017-08-24T10:07:03.122Z,5.87
2017-08-24T10:12:06.303Z,5.20
2017-08-24T10:17:09.528Z,12.70
2017-08-24T10:22:12.722Z,4.30
2017-08-24T10:27:15.915Z,4.43
2017-08-24T10:32:19.217Z,7.10
2017-08-24T10:37:22.421Z,5.10
2017-08-24T10:42:25.627Z,4.53
2017-08-24T10:47:28.829Z,4.10
2017-08-24T10:52:31.989Z,4.60
2017-08-24T10:57:35.197Z,9.50
2017-08-24T11:02:38.390Z,10.33
2017-08-24T11:07:41.584Z,7.23
2017-08-24T11:12:44.777Z,6.20
2017-08-24T11:17:47.968Z,6.50
2017-08-24T11:22:51.178Z,5.63
2017-08-24T11:27:54.375Z,6.87
2017-08-24T11:32:57.612Z,7.60
2017-08-24T11:38:00.789Z,5.30
2017-08-24T11:43:03.970Z,6.13
2017-08-24T11:48:07.219Z,4.50
2017-08-24T11:53:10.415Z,6.73
2017-08-24T11:58:13.603Z,7.67
2017-08-24T12:03:16.781Z,4.50
2017-08-24T12:08:19.986Z,5.93
2017-08-24T12:13:23.190Z,3.87
2017-08-24T12:18:26.393Z,3.77
2017-08-24T12:23:29.545Z,3.40
2017-08-24T12:28:32.755Z,7.13
2017-08-24T12:33:35.957Z,7.70
2017-08-24T12:38:39.170Z,3.23
2017-08-24T12:43:42.370Z,3.73
2017-08-24T12:48:45.622Z,4.90
2017-08-24T12:53:48.808Z,9.97
2017-08-24T12:58:52.018Z,8.70
2017-08-24T13:03:55.222Z,3.30
2017-08-24T13:08:58.438Z,3.43
2017-08-24T13:14:01.651Z,4.17
2017-08-24T13:19:04.811Z,4.83
2017-08-24T13:24:07.994Z,3.33
2017-08-24T13:29:11.188Z,7.53
2017-08-24T13:34:14.378Z,3.17
2017-08-24T13:39:17.554Z,6.10
2017-08-24T13:44:20.798Z,5.33
2017-08-24T13:49:23.987Z,3.77
2017-08-24T13:54:27.200Z,3.87
2017-08-24T13:59:30.418Z,2.07
2017-08-24T14:04:33.633Z,4.77
2017-08-24T14:09:36.823Z,7.23
2017-08-24T14:14:40.177Z,5.20
2017-08-24T14:19:43.388Z,2.30
2017-08-24T14:24:46.592Z,2.50
2017-08-24T14:29:49.790Z,3.10
2017-08-24T14:34:52.971Z,3.27
2017-08-24T14:39:56.322Z,2.37
2017-08-24T14:44:59.525Z,6.17
2017-08-24T14:50:02.730Z,3.70
2017-08-24T14:55:05.949Z,5.87
2017-08-24T15:00:09.154Z,1.83
2017-08-24T15:05:12.355Z,2.60
2017-08-24T15:10:15.513Z,2.43
2017-08-24T15:15:18.720Z,2.10
2017-08-24T15:20:21.955Z,2.50
2017-08-24T15:25:25.150Z,1.70
2017-08-24T15:30:28.333Z,4.90
2017-08-24T15:35:31.547Z,2.43
2017-08-24T15:40:34.710Z,4.90
2017-08-24T15:45:37.909Z,2.30
2017-08-24T15:50:41.121Z,5.43
2017-08-24T15:55:44.334Z,3.00
2017-08-24T16:00:47.479Z,3.63
2017-08-24T16:05:50.702Z,7.22
2017-08-24T16:10:53.889Z,6.43
2017-08-24T16:15:57.104Z,2.87
2017-08-24T16:21:00.321Z,8.50
2017-08-24T16:26:03.531Z,5.20
2017-08-24T16:31:06.710Z,3.63
2017-08-24T16:36:10.029Z,3.37
2017-08-24T16:41:13.223Z,14.47
2017-08-24T16:46:16.455Z,2.33
2017-08-24T16:51:19.664Z,6.67
2017-08-24T16:56:23.022Z,5.23
2017-08-24T17:01:26.306Z,6.40
2017-08-24T17:06:29.517Z,5.43
2017-08-24T17:11:32.700Z,3.63
2017-08-24T17:16:35.910Z,3.60
2017-08-24T17:21:39.109Z,3.33
2017-08-24T17:26:42.315Z,4.77
2017-08-24T17:31:45.537Z,7.00
2017-08-24T17:36:48.981Z,3.37
2017-08-24T17:41:53.304Z,6.00
2017-08-24T17:46:56.489Z,5.77
2017-08-24T17:52:00.590Z,6.27
2017-08-24T17:57:03.792Z,5.07
2017-08-24T18:02:07.168Z,5.23
2017-08-24T18:07:10.380Z,7.77
2017-08-24T18:12:13.681Z,6.15
2017-08-24T18:17:16.889Z,4.20
2017-08-24T18:22:20.118Z,5.93
2017-08-24T18:27:23.366Z,3.67
2017-08-24T18:32:26.556Z,12.83
2017-08-24T18:37:29.790Z,7.10
2017-08-24T18:42:33.017Z,5.00
2017-08-24T18:47:36.283Z,3.90
2017-08-24T18:52:39.518Z,17.17
2017-08-24T18:57:42.697Z,4.50
2017-08-24T19:02:46.001Z,10.60
2017-08-24T19:07:49.181Z,5.20
2017-08-24T19:12:52.429Z,10.83
2017-08-24T19:17:55.826Z,6.83
2017-08-24T19:22:59.044Z,8.10
2017-08-24T19:28:02.262Z,8.67
2017-08-24T19:33:05.553Z,11.43
2017-08-24T19:38:08.860Z,7.67
2017-08-24T19:43:12.019Z,5.90
2017-08-24T19:48:15.210Z,5.90
2017-08-24T19:53:18.389Z,5.30
2017-08-24T19:58:21.538Z,7.33
2017-08-24T20:03:24.696Z,9.37
2017-08-24T20:08:28.067Z,8.30
2017-08-24T20:13:31.287Z,14.73
2017-08-24T20:18:34.475Z,11.50
2017-08-24T20:23:37.631Z,10.30
2017-08-24T20:28:40.865Z,7.77
2017-08-24T20:33:44.088Z,10.37
2017-08-24T20:38:47.288Z,8.80
2017-08-24T20:43:50.484Z,9.77
2017-08-24T20:48:53.695Z,7.60
2017-08-24T20:53:56.898Z,20.17
2017-08-24T20:59:00.239Z,11.97
2017-08-24T21:04:03.582Z,5.80
2017-08-24T21:09:06.788Z,10.10
2017-08-24T21:14:09.967Z,6.40
2017-08-24T21:19:13.166Z,6.07
2017-08-24T21:24:16.362Z,7.77
2017-08-24T21:29:19.572Z,6.73
2017-08-24T21:34:22.786Z,5.53
2017-08-24T21:39:25.957Z,8.90
2017-08-24T21:44:29.159Z,6.73
2017-08-24T21:49:32.340Z,5.23
2017-08-24T21:54:35.528Z,6.07
2017-08-24T21:59:38.702Z,8.77
2017-08-24T22:04:41.887Z,5.53
2017-08-24T22:09:45.094Z,6.10
2017-08-24T22:14:48.282Z,5.90
2017-08-24T22:19:51.489Z,4.37
2017-08-24T22:24:54.672Z,7.27
2017-08-24T22:29:57.896Z,7.50
2017-08-24T22:35:01.070Z,6.27
2017-08-24T22:40:04.239Z,6.37
2017-08-24T22:45:07.422Z,5.27
2017-08-24T22:50:10.597Z,9.60
2017-08-24T22:55:19.506Z,7.37
2017-08-24T23:00:28.273Z,4.77
2017-08-24T23:05:31.461Z,10.83
2017-08-24T23:10:34.655Z,7.47
2017-08-24T23:15:37.835Z,6.33
2017-08-24T23:20:40.986Z,4.77
2017-08-24T23:25:44.243Z,6.87
2017-08-24T23:30:47.413Z,6.53
2017-08-24T23:35:50.594Z,4.73
2017-08-24T23:40:53.789Z,6.50
2017-08-24T23:45:57.012Z,7.53
2017-08-24T23:51:00.237Z,5.67
2017-08-24T23:56:03.437Z,13.40
